Time;durP1;ratioP1;P1;durP2;ratioP2;P2;SDS_P1;SDS_P2;PMS_P1;PMS_P2;Temp;Humidity;BMP_temperature;BMP_pressure;BME280_temperature;BME280_humidity;BME280_pressure;Samples;Min_cycle;Max_cycle;Signal;HPM_P1;HPM_P2
2023/05/04 00:01:17;;;;;;;3.40;3.10;;;15.00;45.60;;;;;;5049780;28;20445;-85
2023/05/04 00:03:44;;;;;;;6.03;3.53;;;14.90;45.60;;;;;;5020985;28;20450;-84
2023/05/04 00:06:11;;;;;;;3.80;3.40;;;14.90;45.60;;;;;;5011592;28;20491;-84
2023/05/04 00:08:39;;;;;;;4.50;3.13;;;14.90;45.40;;;;;;5035315;28;20831;-83
2023/05/04 00:11:07;;;;;;;3.37;3.07;;;14.90;45.10;;;;;;5023877;28;20450;-83
2023/05/04 00:13:34;;;;;;;4.30;3.33;;;14.80;45.70;;;;;;5001768;28;20461;-82
2023/05/04 00:16:01;;;;;;;4.17;3.63;;;14.70;45.70;;;;;;5020318;28;20453;-84
2023/05/04 00:18:28;;;;;;;5.13;3.90;;;14.70;45.50;;;;;;5046665;28;20531;-82
2023/05/04 00:20:55;;;;;;;4.40;3.80;;;14.70;45.40;;;;;;5034641;28;20459;-83
2023/05/04 00:23:21;;;;;;;6.70;4.00;;;14.70;46.40;;;;;;5038808;28;20457;-84
2023/05/04 00:25:50;;;;;;;5.40;4.37;;;14.70;45.60;;;;;;5035675;28;20440;-84
2023/05/04 00:28:17;;;;;;;4.20;3.80;;;14.70;45.60;;;;;;5015814;28;20490;-84
2023/05/04 00:30:44;;;;;;;5.13;3.87;;;14.60;45.60;;;;;;5015555;28;20439;-85
2023/05/04 00:33:11;;;;;;;5.50;3.83;;;14.50;45.70;;;;;;5007641;28;20461;-84
2023/05/04 00:35:40;;;;;;;7.20;3.90;;;14.40;46.40;;;;;;5037021;28;20441;-82
2023/05/04 00:38:07;;;;;;;5.20;3.80;;;14.40;46.40;;;;;;5024742;28;20462;-82
2023/05/04 00:40:35;;;;;;;5.83;3.97;;;14.40;46.10;;;;;;5026859;28;20448;-82
2023/05/04 00:43:03;;;;;;;5.60;3.43;;;14.40;46.40;;;;;;5020696;28;21125;-84
2023/05/04 00:45:30;;;;;;;6.50;4.07;;;14.30;46.60;;;;;;5033535;28;20433;-84
2023/05/04 00:47:58;;;;;;;4.50;3.80;;;14.30;46.30;;;;;;5022730;28;20461;-84
2023/05/04 00:50:26;;;;;;;5.70;4.10;;;14.30;46.40;;;;;;5017646;28;20442;-83
2023/05/04 00:52:55;;;;;;;5.43;3.50;;;14.20;46.30;;;;;;5024782;28;20440;-83
2023/05/04 00:55:22;;;;;;;7.60;4.33;;;14.00;46.70;;;;;;5015851;28;20442;-84
2023/05/04 00:57:50;;;;;;;8.27;3.70;;;14.00;47.20;;;;;;5026929;28;20484;-84
2023/05/04 01:00:19;;;;;;;5.23;3.83;;;13.90;46.90;;;;;;5007709;28;21064;-84
2023/05/04 01:02:46;;;;;;;5.97;4.10;;;13.80;46.40;;;;;;5020913;28;20484;-84
2023/05/04 01:05:13;;;;;;;7.47;3.83;;;13.50;46.90;;;;;;5014076;28;20456;-84
2023/05/04 01:07:51;;;;;;;6.87;4.30;;;13.10;47.30;;;;;;5011635;28;20468;-84
2023/05/04 01:10:25;;;;;;;4.40;4.00;;;12.90;48.30;;;;;;5021164;28;20462;-82
2023/05/04 01:12:58;;;;;;;4.40;4.00;;;13.20;48.00;;;;;;5036197;28;20444;-84
2023/05/04 01:15:27;;;;;;;4.63;4.20;;;13.50;47.80;;;;;;5015190;28;20455;-82
2023/05/04 01:17:56;;;;;;;4.27;3.90;;;13.70;47.30;;;;;;5023614;28;21006;-84
2023/05/04 01:20:23;;;;;;;13.93;5.27;;;13.80;47.00;;;;;;5019783;28;20494;-82
2023/05/04 01:22:51;;;;;;;5.77;4.80;;;13.90;46.90;;;;;;5037131;28;20556;-84
2023/05/04 01:25:20;;;;;;;6.33;4.50;;;13.90;47.00;;;;;;5020143;28;20454;-84
2023/05/04 01:27:53;;;;;;;4.37;3.97;;;13.90;46.40;;;;;;5023409;28;20477;-84
2023/05/04 01:30:25;;;;;;;8.73;4.63;;;13.90;46.20;;;;;;5006342;28;20467;-84
2023/05/04 01:32:53;;;;;;;6.90;5.30;;;13.80;46.20;;;;;;5038737;28;20977;-84
2023/05/04 01:35:20;;;;;;;4.73;4.23;;;13.90;46.30;;;;;;5021738;28;20449;-84
2023/05/04 01:37:47;;;;;;;7.13;5.10;;;13.90;46.50;;;;;;5026616;28;20487;-85
2023/05/04 01:40:15;;;;;;;7.87;4.77;;;13.80;46.60;;;;;;5034323;28;21636;-82
2023/05/04 01:42:42;;;;;;;8.90;4.57;;;13.80;47.00;;;;;;5055475;28;20465;-85
2023/05/04 01:45:12;;;;;;;5.07;3.90;;;13.80;46.70;;;;;;5052317;28;21032;-83
2023/05/04 01:47:39;;;;;;;6.50;4.73;;;13.70;46.80;;;;;;5022276;28;20524;-83
2023/05/04 01:50:06;;;;;;;6.50;4.70;;;13.70;47.20;;;;;;5032665;28;20460;-85
2023/05/04 01:52:34;;;;;;;7.83;4.10;;;13.60;47.40;;;;;;5050988;28;20482;-84
2023/05/04 01:55:01;;;;;;;6.30;4.67;;;13.60;48.00;;;;;;5008824;28;21285;-84
2023/05/04 01:57:29;;;;;;;6.43;4.30;;;13.50;48.00;;;;;;5009863;28;20462;-84
2023/05/04 01:59:56;;;;;;;7.03;4.97;;;13.40;47.80;;;;;;5027452;28;20461;-83
2023/05/04 02:02:24;;;;;;;5.60;4.77;;;13.40;47.40;;;;;;5053789;28;20530;-84
2023/05/04 02:04:51;;;;;;;6.80;5.47;;;13.50;47.10;;;;;;5028496;28;20476;-84
2023/05/04 02:07:18;;;;;;;9.70;5.10;;;13.40;46.80;;;;;;5020854;28;20473;-85
2023/05/04 02:09:45;;;;;;;8.17;5.23;;;13.40;47.00;;;;;;5008832;28;20447;-84
2023/05/04 02:12:12;;;;;;;12.03;4.20;;;13.30;47.20;;;;;;5011812;28;20438;-82
2023/05/04 02:14:41;;;;;;;5.20;4.70;;;13.20;47.00;;;;;;5016053;28;20457;-82
2023/05/04 02:17:08;;;;;;;6.00;4.80;;;13.20;46.90;;;;;;5026054;28;20972;-84
2023/05/04 02:19:37;;;;;;;6.40;4.70;;;13.20;47.10;;;;;;5017465;28;20445;-84
2023/05/04 02:22:04;;;;;;;5.97;4.93;;;13.20;46.90;;;;;;5007619;28;20555;-84
2023/05/04 02:24:31;;;;;;;4.67;4.27;;;13.10;47.20;;;;;;5034542;28;20450;-82
2023/05/04 02:26:58;;;;;;;5.43;4.87;;;13.10;47.40;;;;;;5033423;28;20478;-84
2023/05/04 02:29:25;;;;;;;10.80;5.13;;;13.10;47.30;;;;;;5025874;28;20452;-82
2023/05/04 02:31:54;;;;;;;6.77;4.87;;;13.10;47.30;;;;;;5030199;28;20516;-84
2023/05/04 02:34:21;;;;;;;6.70;5.30;;;13.10;47.80;;;;;;5017909;28;20464;-83
2023/05/04 02:36:48;;;;;;;6.43;4.70;;;13.10;47.30;;;;;;5034311;28;21205;-84
2023/05/04 02:39:15;;;;;;;6.93;5.07;;;13.10;47.30;;;;;;5005264;28;20571;-85
2023/05/04 02:41:42;;;;;;;5.53;4.50;;;13.00;47.50;;;;;;5036615;28;20544;-84
2023/05/04 02:44:09;;;;;;;7.70;5.07;;;13.00;47.10;;;;;;5026875;28;20992;-84
2023/05/04 02:46:36;;;;;;;9.57;5.30;;;13.00;47.10;;;;;;5009374;28;20484;-83
2023/05/04 02:49:04;;;;;;;6.87;5.10;;;13.00;47.60;;;;;;5055054;28;20445;-86
2023/05/04 02:51:31;;;;;;;5.00;4.20;;;13.00;47.40;;;;;;5010857;28;20452;-84
2023/05/04 02:53:58;;;;;;;8.00;4.30;;;13.00;47.30;;;;;;5009415;28;20442;-83
2023/05/04 02:56:25;;;;;;;7.67;4.83;;;13.00;47.10;;;;;;5028512;28;20491;-84
2023/05/04 02:58:52;;;;;;;7.40;4.23;;;12.80;47.60;;;;;;5009600;28;20536;-84
2023/05/04 03:01:19;;;;;;;5.33;4.83;;;12.70;47.70;;;;;;5020289;28;20451;-84
2023/05/04 03:03:46;;;;;;;8.20;5.73;;;12.70;47.70;;;;;;5051543;28;20465;-84
2023/05/04 03:06:14;;;;;;;7.93;5.27;;;12.80;47.60;;;;;;5015462;28;20504;-82
2023/05/04 03:08:41;;;;;;;8.40;4.97;;;12.60;47.70;;;;;;5036117;28;20449;-81
2023/05/04 03:11:08;;;;;;;6.87;5.00;;;12.60;48.10;;;;;;5043024;28;20453;-84
2023/05/04 03:13:35;;;;;;;5.57;4.93;;;12.60;47.80;;;;;;5020249;28;20445;-82
2023/05/04 03:16:04;;;;;;;5.10;4.60;;;12.70;47.90;;;;;;5003130;28;20817;-84
2023/05/04 03:18:31;;;;;;;5.53;5.03;;;12.70;47.60;;;;;;5005927;28;21455;-84
2023/05/04 03:20:58;;;;;;;6.17;4.30;;;12.70;47.30;;;;;;5018338;28;20451;-84
2023/05/04 03:23:27;;;;;;;6.87;5.17;;;12.70;47.20;;;;;;5034962;28;20656;-82
2023/05/04 03:25:53;;;;;;;4.83;4.33;;;12.60;47.90;;;;;;5035239;28;20441;-85
2023/05/04 03:28:20;;;;;;;5.87;5.20;;;12.50;48.10;;;;;;5025459;28;20553;-83
2023/05/04 03:30:47;;;;;;;7.00;5.57;;;12.50;48.20;;;;;;5003125;28;20822;-83
2023/05/04 03:33:15;;;;;;;5.43;4.60;;;12.50;48.20;;;;;;5034651;28;20875;-84
2023/05/04 03:35:42;;;;;;;8.30;5.17;;;12.40;48.30;;;;;;5034998;28;20448;-84
2023/05/04 03:38:10;;;;;;;5.70;5.17;;;12.30;48.80;;;;;;5054540;28;20465;-84
2023/05/04 03:40:38;;;;;;;6.13;4.83;;;12.30;48.90;;;;;;5038832;28;20445;-84
2023/05/04 03:43:05;;;;;;;5.30;4.80;;;12.30;48.70;;;;;;5055314;28;20469;-83
2023/05/04 03:45:32;;;;;;;6.30;4.70;;;12.40;48.40;;;;;;5036654;28;20780;-83
2023/05/04 03:47:59;;;;;;;7.53;5.63;;;12.40;48.30;;;;;;5011268;28;20456;-87
2023/05/04 03:50:27;;;;;;;7.03;5.40;;;12.30;48.70;;;;;;5019391;28;20445;-84
2023/05/04 03:52:54;;;;;;;7.40;5.17;;;12.10;49.40;;;;;;5018658;28;20481;-82
2023/05/04 03:55:23;;;;;;;5.97;4.90;;;12.10;49.50;;;;;;5034576;28;20453;-85
2023/05/04 03:57:52;;;;;;;6.20;4.83;;;12.20;50.10;;;;;;5024300;28;20476;-84
2023/05/04 04:00:19;;;;;;;6.43;4.50;;;12.20;50.10;;;;;;5006057;28;20572;-83
2023/05/04 04:02:54;;;;;;;6.10;5.00;;;12.30;49.80;;;;;;5002811;28;20576;-83
2023/05/04 04:05:22;;;;;;;6.87;5.50;;;12.30;49.30;;;;;;5026738;28;20454;-86
2023/05/04 04:07:51;;;;;;;5.90;5.13;;;12.30;49.30;;;;;;5002132;28;20765;-83
2023/05/04 04:10:18;;;;;;;5.67;5.07;;;12.30;49.30;;;;;;5015797;28;20437;-86
2023/05/04 04:12:45;;;;;;;9.23;5.70;;;12.30;49.30;;;;;;5036863;28;20843;-83
2023/05/04 04:15:13;;;;;;;6.87;5.00;;;12.20;49.60;;;;;;5007933;28;20514;-84
2023/05/04 04:17:40;;;;;;;7.93;5.57;;;12.30;49.60;;;;;;5010257;28;20477;-83
2023/05/04 04:20:09;;;;;;;6.10;5.50;;;12.30;49.60;;;;;;5016119;28;20441;-87
2023/05/04 04:22:36;;;;;;;6.00;5.23;;;12.30;49.60;;;;;;5030557;28;20455;-85
2023/05/04 04:25:03;;;;;;;7.50;5.37;;;12.30;49.60;;;;;;5048191;28;20463;-84
2023/05/04 04:27:30;;;;;;;7.03;5.77;;;12.20;50.10;;;;;;5013730;28;20488;-88
2023/05/04 04:29:57;;;;;;;7.90;6.03;;;12.30;50.30;;;;;;5016345;28;20452;-85
2023/05/04 04:32:25;;;;;;;8.00;6.57;;;12.20;50.10;;;;;;5008489;28;20738;-86
2023/05/04 04:34:52;;;;;;;11.10;6.37;;;12.30;50.40;;;;;;5019656;28;20462;-85
2023/05/04 04:37:19;;;;;;;8.20;6.40;;;12.30;50.20;;;;;;5033006;28;20502;-84
2023/05/04 04:39:46;;;;;;;7.30;5.93;;;12.40;50.10;;;;;;5009470;28;20503;-86
2023/05/04 04:42:13;;;;;;;7.13;6.40;;;12.40;50.00;;;;;;5002446;28;20846;-83
2023/05/04 04:44:40;;;;;;;7.87;5.90;;;12.50;50.10;;;;;;5027586;28;20477;-84
2023/05/04 04:47:08;;;;;;;10.57;6.60;;;12.60;50.30;;;;;;5030202;28;20476;-84
2023/05/04 04:49:36;;;;;;;10.50;6.27;;;12.60;50.50;;;;;;5021087;28;20509;-82
2023/05/04 04:52:03;;;;;;;13.73;6.77;;;12.70;50.80;;;;;;5037787;28;20457;-87
2023/05/04 04:54:30;;;;;;;7.67;5.70;;;12.70;51.00;;;;;;5037280;28;20449;-83
2023/05/04 04:56:58;;;;;;;7.43;6.50;;;12.70;50.70;;;;;;5010356;28;20480;-85
2023/05/04 04:59:25;;;;;;;6.70;5.30;;;12.70;51.10;;;;;;5030479;28;20443;-86
2023/05/04 05:01:52;;;;;;;8.57;4.80;;;12.70;51.20;;;;;;5027964;28;20455;-83
2023/05/04 05:04:20;;;;;;;9.23;6.40;;;12.80;51.20;;;;;;5021536;28;20470;-84
2023/05/04 05:06:50;;;;;;;22.03;7.27;;;12.80;51.10;;;;;;5043072;28;20987;-87
2023/05/04 05:09:17;;;;;;;6.50;5.90;;;12.50;51.70;;;;;;5029893;28;20543;-83
2023/05/04 05:11:44;;;;;;;10.53;6.03;;;12.60;51.90;;;;;;5031682;28;20443;-86
2023/05/04 05:14:11;;;;;;;7.17;6.13;;;12.60;51.90;;;;;;5022178;28;20830;-83
2023/05/04 05:16:38;;;;;;;10.60;6.10;;;12.70;52.00;;;;;;5027290;28;20480;-85
2023/05/04 05:19:05;;;;;;;5.87;5.03;;;12.70;52.00;;;;;;5024246;28;20437;-85
2023/05/04 05:21:31;;;;;;;10.47;6.80;;;12.80;51.90;;;;;;5043617;28;20445;-84
2023/05/04 05:24:00;;;;;;;10.40;7.67;;;12.90;51.70;;;;;;5009959;28;20461;-85
2023/05/04 05:26:27;;;;;;;8.00;7.20;;;13.00;51.50;;;;;;5022602;28;20480;-83
2023/05/04 05:28:54;;;;;;;10.10;6.40;;;12.90;51.70;;;;;;5018803;28;20437;-84
2023/05/04 05:31:21;;;;;;;13.30;7.70;;;13.00;51.50;;;;;;5010151;28;20463;-85
2023/05/04 05:33:48;;;;;;;9.70;6.63;;;13.00;51.50;;;;;;5039773;28;20449;-83
2023/05/04 05:36:15;;;;;;;10.90;7.60;;;13.10;51.40;;;;;;5026528;28;20484;-85
2023/05/04 05:38:42;;;;;;;9.60;7.07;;;13.00;51.60;;;;;;5013148;28;20973;-83
2023/05/04 05:41:10;;;;;;;10.30;6.27;;;13.00;51.80;;;;;;5014169;28;20458;-85
2023/05/04 05:43:37;;;;;;;16.30;7.70;;;13.00;51.70;;;;;;5039063;28;20467;-86
2023/05/04 05:46:05;;;;;;;7.90;5.93;;;13.00;51.90;;;;;;5020526;28;20454;-84
2023/05/04 05:48:32;;;;;;;9.67;6.93;;;12.80;52.40;;;;;;5022497;28;20464;-85
2023/05/04 05:51:00;;;;;;;7.53;6.07;;;12.60;52.60;;;;;;5028977;28;20466;-84
2023/05/04 05:53:27;;;;;;;10.30;6.73;;;12.70;52.80;;;;;;5023109;28;21031;-84
2023/05/04 05:55:54;;;;;;;9.80;7.37;;;12.90;52.40;;;;;;5024021;28;20920;-85
2023/05/04 05:58:22;;;;;;;9.57;6.43;;;12.80;52.00;;;;;;5023648;28;20445;-85
2023/05/04 06:00:49;;;;;;;15.00;6.90;;;12.50;52.80;;;;;;5009672;28;20544;-84
2023/05/04 06:03:16;;;;;;;7.80;6.20;;;12.30;53.20;;;;;;5029083;28;20475;-84
2023/05/04 06:05:43;;;;;;;8.83;7.30;;;12.20;53.50;;;;;;5004509;28;20971;-82
2023/05/04 06:08:10;;;;;;;9.53;6.10;;;12.50;53.70;;;;;;5038793;28;20464;-84
2023/05/04 06:10:37;;;;;;;8.80;5.93;;;12.90;52.80;;;;;;5036970;28;20464;-83
2023/05/04 06:13:04;;;;;;;12.90;7.10;;;13.10;52.20;;;;;;5006750;28;20458;-84
2023/05/04 06:15:33;;;;;;;8.60;6.60;;;13.10;52.00;;;;;;5038954;28;20832;-86
2023/05/04 06:18:00;;;;;;;9.20;7.00;;;13.00;52.20;;;;;;5005111;28;21148;-83
2023/05/04 06:20:27;;;;;;;10.27;7.60;;;13.30;52.50;;;;;;5055802;28;20889;-83
2023/05/04 06:22:54;;;;;;;7.80;6.83;;;13.40;52.00;;;;;;5026046;28;22352;-86
2023/05/04 06:25:22;;;;;;;10.10;6.93;;;13.40;52.10;;;;;;5027795;28;20570;-85
2023/05/04 06:27:48;;;;;;;12.60;7.67;;;13.50;52.10;;;;;;5023266;28;20461;-87
2023/05/04 06:30:16;;;;;;;9.63;6.97;;;13.50;52.10;;;;;;5021851;28;20452;-85
2023/05/04 06:32:45;;;;;;;7.13;6.27;;;13.60;52.00;;;;;;5027771;28;20458;-85
2023/05/04 06:35:12;;;;;;;8.43;6.73;;;13.70;51.60;;;;;;5036491;28;20445;-84
2023/05/04 06:37:39;;;;;;;13.00;6.77;;;13.70;51.80;;;;;;5010577;28;20464;-86
2023/05/04 06:40:07;;;;;;;17.73;8.23;;;13.90;51.70;;;;;;5016073;28;20974;-85
2023/05/04 06:42:34;;;;;;;9.90;6.80;;;14.10;51.40;;;;;;5019198;28;20820;-85
2023/05/04 06:45:02;;;;;;;7.63;6.40;;;14.30;50.70;;;;;;5018069;28;20474;-87
2023/05/04 06:47:28;;;;;;;10.60;6.27;;;14.40;50.20;;;;;;5011293;28;21182;-85
2023/05/04 06:49:57;;;;;;;14.10;6.00;;;14.20;50.10;;;;;;5009570;28;21079;-86
2023/05/04 06:52:24;;;;;;;10.50;7.03;;;14.50;50.20;;;;;;5033759;28;20461;-84
2023/05/04 06:54:52;;;;;;;11.57;6.47;;;14.70;49.90;;;;;;5007497;28;20449;-86
2023/05/04 06:57:18;;;;;;;7.17;6.23;;;14.60;50.10;;;;;;5019320;28;20842;-84
2023/05/04 06:59:45;;;;;;;12.93;6.67;;;15.00;50.50;;;;;;5016611;28;20461;-83
2023/05/04 07:02:13;;;;;;;8.57;5.97;;;15.30;49.80;;;;;;5028657;28;21024;-84
2023/05/04 07:04:40;;;;;;;11.80;6.50;;;15.30;49.00;;;;;;5028823;28;20477;-88
2023/05/04 07:07:08;;;;;;;9.23;5.70;;;15.40;48.80;;;;;;5036958;28;20470;-83
2023/05/04 07:09:35;;;;;;;9.23;6.70;;;15.70;49.10;;;;;;5026216;28;20471;-83
2023/05/04 07:12:03;;;;;;;8.13;6.40;;;15.90;48.40;;;;;;5026963;28;20448;-84
2023/05/04 07:14:30;;;;;;;13.80;6.30;;;15.90;48.00;;;;;;5012043;28;20542;-84
2023/05/04 07:16:57;;;;;;;7.50;6.03;;;15.90;48.70;;;;;;5009813;28;20514;-85
2023/05/04 07:19:24;;;;;;;9.97;6.00;;;16.00;48.50;;;;;;5021195;28;20468;-83
2023/05/04 07:21:51;;;;;;;8.53;6.90;;;15.80;48.90;;;;;;5032998;28;20454;-86
2023/05/04 07:24:19;;;;;;;10.83;7.60;;;15.80;49.00;;;;;;5051518;28;20845;-86
2023/05/04 07:26:46;;;;;;;16.67;6.20;;;16.00;49.00;;;;;;5020041;28;20485;-85
2023/05/04 07:29:13;;;;;;;9.13;6.83;;;16.10;49.00;;;;;;5025754;28;20441;-84
2023/05/04 07:31:40;;;;;;;12.73;6.30;;;16.10;48.60;;;;;;5014953;28;20950;-86
2023/05/04 07:34:07;;;;;;;7.97;6.83;;;16.10;49.00;;;;;;5018953;28;20473;-88
2023/05/04 07:36:35;;;;;;;11.17;6.20;;;16.20;49.30;;;;;;5032733;28;20572;-83
2023/05/04 07:39:02;;;;;;;9.40;6.50;;;16.40;48.80;;;;;;5017183;28;20452;-86
2023/05/04 07:41:30;;;;;;;9.13;6.23;;;16.40;48.80;;;;;;5023707;28;20787;-86
2023/05/04 07:43:57;;;;;;;8.40;6.20;;;16.70;48.30;;;;;;5025940;28;20917;-85
2023/05/04 07:46:24;;;;;;;12.33;7.10;;;16.80;47.70;;;;;;5016904;28;20925;-85
2023/05/04 07:48:51;;;;;;;9.70;6.70;;;16.60;48.30;;;;;;5033361;28;20461;-86
2023/05/04 07:51:18;;;;;;;12.77;6.83;;;16.70;48.50;;;;;;5025002;28;20458;-85
2023/05/04 07:53:45;;;;;;;9.70;6.50;;;16.70;48.30;;;;;;5024257;28;20523;-84
2023/05/04 07:56:13;;;;;;;11.30;6.93;;;16.70;48.60;;;;;;5018881;28;20528;-85
2023/05/04 07:58:41;;;;;;;10.23;6.60;;;16.80;48.40;;;;;;5020933;28;20453;-86
2023/05/04 08:01:08;;;;;;;13.50;7.33;;;17.10;48.30;;;;;;5005784;28;20952;-86
2023/05/04 08:03:35;;;;;;;7.23;6.47;;;17.20;48.30;;;;;;5016025;28;20943;-83
2023/05/04 08:06:02;;;;;;;8.60;6.30;;;17.60;48.30;;;;;;5032332;28;20456;-85
2023/05/04 08:08:29;;;;;;;11.10;6.23;;;17.80;47.20;;;;;;5037015;28;20461;-84
2023/05/04 08:10:56;;;;;;;9.93;7.03;;;17.80;46.60;;;;;;5025125;28;20464;-85
2023/05/04 08:13:23;;;;;;;12.97;6.70;;;17.70;47.00;;;;;;5016736;28;20487;-85
2023/05/04 08:15:52;;;;;;;10.33;7.57;;;18.00;46.70;;;;;;4994986;28;20903;-87
2023/05/04 08:18:19;;;;;;;8.67;6.90;;;18.20;46.40;;;;;;5048964;28;20508;-87
2023/05/04 08:20:45;;;;;;;13.00;8.40;;;18.20;45.70;;;;;;5007920;28;20453;-85
2023/05/04 08:23:13;;;;;;;9.73;7.60;;;18.50;46.30;;;;;;5015026;28;20458;-85
2023/05/04 08:25:40;;;;;;;10.70;7.30;;;18.80;45.80;;;;;;5022568;28;20484;-86
2023/05/04 08:28:07;;;;;;;12.93;8.43;;;19.10;45.40;;;;;;5025682;28;20472;-84
2023/05/04 08:30:34;;;;;;;8.27;7.40;;;19.20;44.10;;;;;;5028355;28;20534;-83
2023/05/04 08:33:02;;;;;;;8.90;6.50;;;19.30;44.70;;;;;;5015273;28;20445;-85
2023/05/04 08:35:29;;;;;;;10.83;6.70;;;19.60;45.30;;;;;;5021938;28;20446;-86
2023/05/04 08:37:56;;;;;;;12.97;6.73;;;19.70;43.60;;;;;;5018814;28;20468;-85
2023/05/04 08:40:23;;;;;;;9.13;7.53;;;19.50;43.90;;;;;;5002643;28;20445;-84
2023/05/04 08:42:51;;;;;;;10.10;7.20;;;19.40;44.50;;;;;;5000918;28;20498;-83
2023/05/04 08:45:18;;;;;;;10.90;8.90;;;19.60;44.40;;;;;;5024660;28;20492;-86
2023/05/04 08:47:45;;;;;;;9.70;8.70;;;19.60;43.70;;;;;;5029395;28;20476;-85
2023/05/04 08:50:13;;;;;;;9.63;7.00;;;19.80;44.80;;;;;;5015217;28;20444;-83
2023/05/04 08:52:45;;;;;;;10.77;8.27;;;20.10;44.40;;;;;;5018971;28;21177;-85
2023/05/04 08:55:13;;;;;;;10.47;7.90;;;20.30;43.40;;;;;;5032334;28;20453;-85
2023/05/04 08:57:42;;;;;;;10.10;7.90;;;20.30;42.90;;;;;;5018016;28;20483;-86
2023/05/04 09:00:12;;;;;;;13.03;9.33;;;20.40;43.70;;;;;;5020831;28;20462;-85
2023/05/04 09:02:40;;;;;;;7.80;7.00;;;20.10;43.10;;;;;;5000673;28;20817;-84
2023/05/04 09:05:08;;;;;;;19.70;8.57;;;20.30;43.50;;;;;;5021881;28;20835;-85
2023/05/04 09:07:36;;;;;;;7.63;6.70;;;20.10;44.30;;;;;;5051514;28;20556;-86
2023/05/04 09:10:04;;;;;;;10.50;7.47;;;20.50;43.80;;;;;;5014841;28;21012;-85
2023/05/04 09:12:31;;;;;;;9.70;6.70;;;20.60;43.20;;;;;;5025952;28;20543;-86
2023/05/04 09:15:00;;;;;;;8.13;6.67;;;20.80;43.90;;;;;;4999977;28;20469;-85
2023/05/04 09:17:28;;;;;;;9.03;6.60;;;21.20;43.60;;;;;;5036044;28;20682;-84
2023/05/04 09:19:58;;;;;;;12.57;7.50;;;21.30;42.00;;;;;;5018741;28;20460;-86
2023/05/04 09:22:26;;;;;;;11.30;7.13;;;21.20;43.00;;;;;;5024517;28;20452;-85
2023/05/04 09:25:04;;;;;;;9.70;6.13;;;21.50;42.60;;;;;;5035842;28;20485;-85
2023/05/04 09:27:31;;;;;;;7.50;6.50;;;21.70;42.40;;;;;;5023432;28;20482;-87
2023/05/04 09:29:58;;;;;;;7.87;6.27;;;22.00;42.10;;;;;;5020823;28;20441;-86
2023/05/04 09:32:25;;;;;;;7.67;6.00;;;22.10;40.10;;;;;;5026617;28;20455;-84
2023/05/04 09:34:54;;;;;;;9.13;7.33;;;22.10;40.90;;;;;;5021971;28;20457;-84
2023/05/04 09:37:21;;;;;;;15.33;7.60;;;22.00;41.00;;;;;;5034570;28;20531;-86
2023/05/04 09:39:54;;;;;;;8.20;5.60;;;21.90;41.10;;;;;;5026358;28;20454;-84
2023/05/04 09:42:23;;;;;;;11.50;6.77;;;22.20;41.80;;;;;;5033334;28;20457;-86
2023/05/04 09:45:00;;;;;;;7.80;6.97;;;22.60;41.10;;;;;;5027482;28;20503;-87
2023/05/04 09:47:35;;;;;;;7.60;5.70;;;22.70;40.70;;;;;;5037003;28;20558;-85
2023/05/04 09:50:13;;;;;;;6.63;5.90;;;22.90;40.00;;;;;;5004538;28;20966;-87
2023/05/04 09:52:41;;;;;;;9.57;6.57;;;23.10;39.80;;;;;;5023559;28;20452;-87
2023/05/04 09:55:11;;;;;;;7.13;6.00;;;23.10;38.20;;;;;;5010621;28;20453;-88
2023/05/04 09:57:41;;;;;;;7.27;5.70;;;22.60;38.60;;;;;;5029760;28;21032;-84
2023/05/04 10:00:11;;;;;;;7.50;6.67;;;22.60;40.00;;;;;;5018182;28;20845;-85
2023/05/04 10:02:38;;;;;;;9.53;6.80;;;22.90;39.80;;;;;;5019389;28;20429;-83
2023/05/04 10:05:08;;;;;;;10.20;6.60;;;23.30;39.20;;;;;;5034876;28;20458;-84
2023/05/04 10:07:35;;;;;;;6.60;5.87;;;23.30;38.80;;;;;;5010892;28;20473;-86
2023/05/04 10:10:03;;;;;;;6.10;5.33;;;23.20;38.20;;;;;;5020641;28;20452;-85
2023/05/04 10:12:30;;;;;;;9.93;6.00;;;23.40;38.80;;;;;;4999982;28;20518;-84
2023/05/04 10:14:58;;;;;;;12.30;6.10;;;23.50;38.10;;;;;;5020613;28;20480;-87
2023/05/04 10:17:37;;;;;;;6.93;5.80;;;23.40;38.50;;;;;;5010268;28;22187;-85
2023/05/04 10:20:18;;;;;;;6.47;5.60;;;23.60;39.60;;;;;;5026174;28;20860;-86
2023/05/04 10:23:11;;;;;;;7.13;5.77;;;23.90;36.80;;;;;;5038879;28;20475;-86
2023/05/04 10:26:01;;;;;;;9.83;4.93;;;23.30;36.60;;;;;;5038955;28;20470;-86
2023/05/04 10:28:41;;;;;;;9.13;7.37;;;23.30;37.60;;;;;;5019432;28;20450;-84
2023/05/04 10:31:09;;;;;;;9.43;6.63;;;23.60;36.90;;;;;;5018864;28;20474;-86
2023/05/04 10:33:40;;;;;;;10.13;6.20;;;23.60;37.50;;;;;;5014888;28;20939;-84
2023/05/04 10:36:08;;;;;;;7.50;6.80;;;23.70;37.00;;;;;;5031605;28;20440;-84
2023/05/04 10:38:36;;;;;;;7.60;5.27;;;23.90;35.40;;;;;;5017590;28;20438;-84
2023/05/04 10:41:14;;;;;;;10.23;7.03;;;24.00;35.80;;;;;;5037130;28;20457;-86
2023/05/04 10:43:41;;;;;;;7.03;6.33;;;24.30;36.10;;;;;;5025792;28;20437;-86
2023/05/04 10:46:21;;;;;;;5.73;5.10;;;24.60;34.90;;;;;;5016086;28;20472;-84
2023/05/04 10:48:48;;;;;;;9.30;5.97;;;24.60;36.00;;;;;;5021187;28;21046;-86
2023/05/04 10:51:19;;;;;;;6.83;5.57;;;24.40;35.40;;;;;;5013085;28;20448;-86
2023/05/04 10:53:46;;;;;;;8.37;5.57;;;24.50;36.60;;;;;;5029650;28;20445;-87
2023/05/04 10:56:21;;;;;;;6.93;5.23;;;24.60;36.20;;;;;;5019388;28;20460;-85
2023/05/04 10:58:49;;;;;;;8.20;6.37;;;24.80;36.10;;;;;;5017476;28;20535;-84
2023/05/04 11:01:16;;;;;;;8.40;6.30;;;24.80;34.30;;;;;;5037502;28;20543;-83
2023/05/04 11:03:45;;;;;;;7.40;6.07;;;24.80;35.70;;;;;;5015618;28;20440;-84
2023/05/04 11:06:17;;;;;;;9.53;5.27;;;24.70;34.90;;;;;;5021454;28;20476;-84
2023/05/04 11:08:47;;;;;;;6.37;5.37;;;24.80;35.30;;;;;;5003017;28;20445;-86
2023/05/04 11:11:15;;;;;;;8.27;5.60;;;24.90;34.20;;;;;;5007803;28;20533;-87
2023/05/04 11:13:45;;;;;;;7.20;6.00;;;25.00;35.10;;;;;;5029957;28;20499;-87
2023/05/04 11:16:12;;;;;;;6.43;5.80;;;25.00;34.50;;;;;;5024934;28;20522;-85
2023/05/04 11:18:40;;;;;;;7.77;5.83;;;25.30;34.50;;;;;;5017418;28;20449;-86
2023/05/04 11:21:08;;;;;;;7.80;5.70;;;25.50;34.30;;;;;;5008809;28;20445;-85
2023/05/04 11:23:36;;;;;;;6.23;5.63;;;25.80;34.10;;;;;;5026626;28;20838;-84
2023/05/04 11:26:08;;;;;;;8.40;5.50;;;25.60;33.00;;;;;;5017581;28;20548;-87
2023/05/04 11:28:36;;;;;;;6.73;5.47;;;25.50;34.80;;;;;;5036174;28;20595;-86
2023/05/04 11:31:13;;;;;;;5.40;4.90;;;25.60;33.40;;;;;;5017103;28;20507;-85
2023/05/04 11:33:45;;;;;;;6.83;5.23;;;25.60;33.80;;;;;;5044363;28;20456;-88
2023/05/04 11:36:14;;;;;;;11.50;5.40;;;25.20;33.20;;;;;;5008079;28;20441;-87
2023/05/04 11:38:42;;;;;;;9.10;5.30;;;25.40;33.60;;;;;;4999643;28;20449;-87
2023/05/04 11:41:09;;;;;;;6.57;4.60;;;25.50;32.40;;;;;;5013881;28;20503;-86
2023/05/04 11:43:38;;;;;;;5.37;4.70;;;25.80;33.50;;;;;;5007741;28;20969;-86
2023/05/04 11:46:06;;;;;;;6.10;4.77;;;25.60;33.10;;;;;;5041400;28;20473;-86
2023/05/04 11:48:34;;;;;;;4.83;4.43;;;25.90;32.70;;;;;;5027003;28;20453;-86
2023/05/04 11:51:02;;;;;;;5.10;4.67;;;26.10;32.60;;;;;;5025426;28;20454;-85
2023/05/04 11:53:38;;;;;;;6.43;5.27;;;26.30;32.30;;;;;;5026339;28;20917;-86
2023/05/04 11:56:07;;;;;;;6.57;4.67;;;26.60;31.70;;;;;;5025102;28;20460;-85
2023/05/04 11:58:34;;;;;;;6.03;5.03;;;26.20;30.90;;;;;;5019608;28;20442;-85
2023/05/04 12:01:02;;;;;;;6.30;4.70;;;26.00;31.80;;;;;;5028640;28;20460;-86
2023/05/04 12:03:31;;;;;;;8.10;5.30;;;26.10;31.00;;;;;;5007752;28;20445;-87
2023/05/04 12:05:59;;;;;;;4.83;4.43;;;26.40;30.90;;;;;;5009763;28;20841;-84
2023/05/04 12:08:30;;;;;;;6.13;5.43;;;26.60;31.60;;;;;;5016704;28;20523;-86
2023/05/04 12:11:16;;;;;;;5.13;4.70;;;26.60;30.50;;;;;;5034068;28;20819;-86
2023/05/04 12:13:45;;;;;;;8.27;4.43;;;26.60;30.70;;;;;;5017765;28;20464;-87
2023/05/04 12:16:13;;;;;;;5.17;3.83;;;26.50;31.00;;;;;;5013870;28;20540;-86
2023/05/04 12:18:40;;;;;;;4.73;4.10;;;26.80;29.70;;;;;;5049559;28;20535;-87
2023/05/04 12:21:09;;;;;;;5.07;4.00;;;27.00;30.90;;;;;;5025722;28;20437;-86
2023/05/04 12:23:36;;;;;;;4.53;3.63;;;27.40;30.40;;;;;;5005092;28;20504;-85
2023/05/04 12:26:03;;;;;;;4.83;4.43;;;27.10;29.30;;;;;;5023313;28;20469;-86
2023/05/04 12:28:32;;;;;;;7.40;4.37;;;27.30;29.80;;;;;;5000138;28;20444;-84
2023/05/04 12:30:59;;;;;;;5.80;4.97;;;27.30;29.90;;;;;;5031572;28;20449;-86
2023/05/04 12:33:26;;;;;;;5.20;4.13;;;26.90;28.80;;;;;;5032954;28;20453;-85
2023/05/04 12:35:54;;;;;;;9.30;3.93;;;26.70;29.80;;;;;;5035236;28;20457;-86
2023/05/04 12:38:21;;;;;;;4.17;3.87;;;27.00;30.00;;;;;;5017565;28;20550;-88
2023/05/04 12:40:48;;;;;;;5.13;4.63;;;27.20;29.50;;;;;;5031278;28;20484;-84
2023/05/04 12:43:17;;;;;;;5.97;4.57;;;27.20;29.40;;;;;;5024508;28;20530;-85
2023/05/04 12:45:45;;;;;;;7.23;4.40;;;27.40;29.40;;;;;;5025885;28;20466;-85
2023/05/04 12:48:12;;;;;;;4.60;3.80;;;27.00;29.70;;;;;;5030045;28;20469;-85
2023/05/04 12:50:39;;;;;;;4.00;3.70;;;26.70;29.00;;;;;;5026251;28;20554;-86